createdAt,value
2023-03-05T00:00:02.000Z,4.3
2023-03-05T00:01:32.000Z,4.3
2023-03-05T00:03:03.000Z,4.3
2023-03-05T00:04:33.000Z,4.3
2023-03-05T00:06:04.000Z,4.3
2023-03-05T00:07:21.000Z,4.3
2023-03-05T00:08:38.000Z,4.3
2023-03-05T00:10:08.000Z,4.3
2023-03-05T00:11:39.000Z,4.3
2023-03-05T00:13:09.000Z,4.3
2023-03-05T00:14:40.000Z,4.3
2023-03-05T00:16:10.000Z,4.3
2023-03-05T00:17:41.000Z,4.3
2023-03-05T00:19:11.000Z,4.3
2023-03-05T00:20:42.000Z,4.3
2023-03-05T00:22:12.000Z,4.3
2023-03-05T00:23:29.000Z,4.3
2023-03-05T00:24:46.000Z,4.3
2023-03-05T00:26:17.000Z,4.3
2023-03-05T00:27:47.000Z,4.3
2023-03-05T00:29:18.000Z,4.3
2023-03-05T00:30:48.000Z,4.3
2023-03-05T00:32:19.000Z,4.3
2023-03-05T00:33:49.000Z,4.3
2023-03-05T00:35:28.000Z,4.3
2023-03-05T00:36:58.000Z,4.3
2023-03-05T00:38:29.000Z,4.3
2023-03-05T00:39:46.000Z,4.3
2023-03-05T00:41:03.000Z,4.3
2023-03-05T00:42:33.000Z,4.3
2023-03-05T00:44:04.000Z,4.3
2023-03-05T00:45:34.000Z,4.3
2023-03-05T00:47:05.000Z,4.3
2023-03-05T00:48:35.000Z,4.3
2023-03-05T00:50:06.000Z,4.3
2023-03-05T00:51:36.000Z,4.3
2023-03-05T00:53:07.000Z,4.3
2023-03-05T00:54:37.000Z,4.3
2023-03-05T00:55:54.000Z,4.2
2023-03-05T00:57:11.000Z,4.2
2023-03-05T00:58:42.000Z,4.2
2023-03-05T01:00:12.000Z,4.2
2023-03-05T01:01:43.000Z,4.2
2023-03-05T01:03:13.000Z,4.2
2023-03-05T01:04:44.000Z,4.2
2023-03-05T01:06:14.000Z,4.2
2023-03-05T01:07:45.000Z,4.2
2023-03-05T01:09:15.000Z,4.2
2023-03-05T01:10:46.000Z,4.2
2023-03-05T01:12:03.000Z,4.2
2023-03-05T01:14:50.000Z,4.2
2023-03-05T01:16:21.000Z,4.2
2023-03-05T01:17:51.000Z,4.2
2023-03-05T01:19:22.000Z,4.2
2023-03-05T01:20:52.000Z,4.1
2023-03-05T01:22:23.000Z,4.1
2023-03-05T01:23:54.000Z,4.1
2023-03-05T01:25:24.000Z,4.1
2023-03-05T01:26:55.000Z,4.1
2023-03-05T01:28:12.000Z,4.1
2023-03-05T01:29:28.000Z,4.1
2023-03-05T01:30:59.000Z,4.2
2023-03-05T01:32:30.000Z,4.1
2023-03-05T01:34:00.000Z,4.1
2023-03-05T01:35:31.000Z,4.1
2023-03-05T01:37:01.000Z,4.1
2023-03-05T01:38:32.000Z,4.1
2023-03-05T01:40:02.000Z,4.1
2023-03-05T01:41:33.000Z,4.1
2023-03-05T01:43:03.000Z,4.1
2023-03-05T01:44:20.000Z,4.1
2023-03-05T01:45:37.000Z,4.1
2023-03-05T01:47:08.000Z,4.1
2023-03-05T01:48:38.000Z,4.1
2023-03-05T01:50:09.000Z,4.1
2023-03-05T01:51:39.000Z,4.1
2023-03-05T01:53:10.000Z,4.1
2023-03-05T01:54:40.000Z,4.1
2023-03-05T01:56:11.000Z,4.1
2023-03-05T01:57:41.000Z,4.1
2023-03-05T01:59:12.000Z,4.1
2023-03-05T02:00:29.000Z,4.1
2023-03-05T02:01:46.000Z,4.1
2023-03-05T02:03:16.000Z,4.1
2023-03-05T02:04:47.000Z,4.1
2023-03-05T02:06:17.000Z,4.1
2023-03-05T02:07:48.000Z,4.1
2023-03-05T02:09:18.000Z,4.1
2023-03-05T02:10:49.000Z,4.1
2023-03-05T02:12:19.000Z,4.1
2023-03-05T02:13:50.000Z,4.1
2023-03-05T02:15:20.000Z,4.1
2023-03-05T02:16:37.000Z,4.1
2023-03-05T02:17:54.000Z,4.1
2023-03-05T02:19:25.000Z,4.1
2023-03-05T02:20:55.000Z,4.1
2023-03-05T02:22:26.000Z,4.1
2023-03-05T02:23:56.000Z,4.1
2023-03-05T02:25:27.000Z,4.1
2023-03-05T02:26:57.000Z,4.1
2023-03-05T02:28:28.000Z,4.1
2023-03-05T02:29:58.000Z,4.1
2023-03-05T02:31:29.000Z,4.1
2023-03-05T02:32:46.000Z,4.1
2023-03-05T02:34:03.000Z,4.1
2023-03-05T02:35:33.000Z,4.1
2023-03-05T02:37:04.000Z,4
2023-03-05T02:38:34.000Z,4
2023-03-05T02:40:05.000Z,4
2023-03-05T02:41:35.000Z,4
2023-03-05T02:43:06.000Z,4
2023-03-05T02:44:36.000Z,4
2023-03-05T02:46:07.000Z,4
2023-03-05T02:47:37.000Z,4
2023-03-05T02:48:54.000Z,4
2023-03-05T02:50:11.000Z,4
2023-03-05T02:51:42.000Z,4
2023-03-05T02:53:12.000Z,3.9
2023-03-05T02:54:43.000Z,3.9
2023-03-05T02:56:13.000Z,3.9
2023-03-05T02:57:44.000Z,3.9
2023-03-05T02:59:14.000Z,3.9
2023-03-05T03:00:45.000Z,3.9
2023-03-05T03:02:15.000Z,3.9
2023-03-05T03:03:46.000Z,3.9
2023-03-05T03:05:03.000Z,3.9
2023-03-05T03:06:20.000Z,3.8
2023-03-05T03:07:50.000Z,3.9
2023-03-05T03:09:21.000Z,3.8
2023-03-05T03:10:51.000Z,3.8
2023-03-05T03:13:52.000Z,3.8
2023-03-05T03:15:23.000Z,3.8
2023-03-05T03:16:53.000Z,3.7
2023-03-05T03:18:24.000Z,3.7
2023-03-05T03:19:54.000Z,3.7
2023-03-05T03:21:11.000Z,3.7
2023-03-05T03:22:28.000Z,3.7
2023-03-05T03:23:59.000Z,3.7
2023-03-05T03:25:29.000Z,3.7
2023-03-05T03:27:00.000Z,3.7
2023-03-05T03:28:30.000Z,3.7
2023-03-05T03:30:01.000Z,3.7
2023-03-05T03:31:31.000Z,3.8
2023-03-05T03:33:02.000Z,3.8
2023-03-05T03:34:32.000Z,3.8
2023-03-05T03:36:03.000Z,3.8
2023-03-05T03:37:20.000Z,3.9
2023-03-05T03:38:37.000Z,3.9
2023-03-05T03:40:07.000Z,3.9
2023-03-05T03:41:38.000Z,3.9
2023-03-05T03:43:08.000Z,3.9
2023-03-05T03:44:39.000Z,3.9
2023-03-05T03:46:09.000Z,3.9
2023-03-05T03:49:10.000Z,3.9
2023-03-05T03:50:41.000Z,3.9
2023-03-05T03:52:12.000Z,3.9
2023-03-05T03:53:28.000Z,3.9
2023-03-05T03:54:45.000Z,3.9
2023-03-05T03:56:16.000Z,3.9
2023-03-05T03:57:46.000Z,4
2023-03-05T03:59:17.000Z,3.9
2023-03-05T04:00:48.000Z,4
2023-03-05T04:02:18.000Z,3.9
2023-03-05T04:03:49.000Z,3.9
2023-03-05T04:05:19.000Z,3.9
2023-03-05T04:06:50.000Z,3.9
2023-03-05T04:08:20.000Z,3.9
2023-03-05T04:09:37.000Z,3.9
2023-03-05T04:10:54.000Z,3.9
2023-03-05T04:12:25.000Z,3.9
2023-03-05T04:13:55.000Z,3.9
2023-03-05T04:15:26.000Z,3.9
2023-03-05T04:16:56.000Z,3.9
2023-03-05T04:18:27.000Z,3.9
2023-03-05T04:19:57.000Z,3.9
2023-03-05T04:21:28.000Z,3.9
2023-03-05T04:22:58.000Z,4
2023-03-05T04:24:29.000Z,3.9
2023-03-05T04:25:46.000Z,3.9
2023-03-05T04:27:03.000Z,3.9
2023-03-05T04:28:33.000Z,4
2023-03-05T04:30:04.000Z,4
2023-03-05T04:31:34.000Z,4
2023-03-05T04:33:05.000Z,3.9
2023-03-05T04:34:35.000Z,4
2023-03-05T04:36:06.000Z,4
2023-03-05T04:37:36.000Z,3.9
2023-03-05T04:39:07.000Z,3.9
2023-03-05T04:40:37.000Z,3.9
2023-03-05T04:41:54.000Z,4
2023-03-05T04:43:11.000Z,4
2023-03-05T04:44:41.000Z,4
2023-03-05T04:46:12.000Z,4
2023-03-05T04:47:42.000Z,4
2023-03-05T04:49:13.000Z,3.9
2023-03-05T04:50:43.000Z,3.9
2023-03-05T04:52:14.000Z,3.9
2023-03-05T04:53:44.000Z,3.9
2023-03-05T04:55:15.000Z,3.9
2023-03-05T04:56:45.000Z,3.9
2023-03-05T04:58:02.000Z,3.9
2023-03-05T04:59:19.000Z,3.9
2023-03-05T05:00:50.000Z,3.9
2023-03-05T05:02:20.000Z,3.9
2023-03-05T05:03:51.000Z,3.9
2023-03-05T05:05:21.000Z,4
2023-03-05T05:08:22.000Z,3.9
2023-03-05T05:09:53.000Z,3.9
2023-03-05T05:11:23.000Z,3.9
2023-03-05T05:12:54.000Z,3.9
2023-03-05T05:14:11.000Z,3.9
2023-03-05T05:15:28.000Z,3.9
2023-03-05T05:16:58.000Z,3.9
2023-03-05T05:18:29.000Z,3.9
2023-03-05T05:19:59.000Z,3.9
2023-03-05T05:21:30.000Z,3.9
2023-03-05T05:23:00.000Z,3.9
2023-03-05T05:24:31.000Z,3.9
2023-03-05T05:26:01.000Z,3.9
2023-03-05T05:27:32.000Z,3.9
2023-03-05T05:29:02.000Z,3.9
2023-03-05T05:30:19.000Z,3.9
2023-03-05T05:31:36.489Z,3.9
2023-03-05T05:33:07.000Z,3.9
2023-03-05T05:34:37.000Z,3.9
2023-03-05T05:37:38.000Z,3.9
2023-03-05T05:39:09.000Z,3.9
2023-03-05T05:40:39.000Z,3.9
2023-03-05T05:42:10.000Z,3.8
2023-03-05T05:43:40.000Z,3.8
2023-03-05T05:45:11.000Z,3.8
2023-03-05T05:46:41.000Z,3.8
2023-03-05T05:47:58.000Z,3.8
2023-03-05T05:49:15.000Z,3.9
2023-03-05T05:50:45.000Z,3.9
2023-03-05T05:52:16.000Z,3.9
2023-03-05T05:53:46.000Z,3.9
2023-03-05T05:55:17.000Z,3.9
2023-03-05T05:56:47.000Z,3.9
2023-03-05T05:58:18.000Z,3.9
2023-03-05T05:59:48.000Z,3.9
2023-03-05T06:01:19.000Z,3.9
2023-03-05T06:02:49.000Z,3.9
2023-03-05T06:04:06.000Z,3.9
2023-03-05T06:05:23.000Z,3.9
2023-03-05T06:08:24.000Z,3.9
2023-03-05T06:09:55.000Z,3.9
2023-03-05T06:11:25.000Z,3.9
2023-03-05T06:12:56.000Z,3.9
2023-03-05T06:14:26.000Z,3.9
2023-03-05T06:15:57.000Z,3.9
2023-03-05T06:17:27.000Z,3.9
2023-03-05T06:18:58.000Z,3.9
2023-03-05T06:20:15.000Z,3.9
2023-03-05T06:21:32.000Z,4
2023-03-05T06:23:02.000Z,3.9
2023-03-05T06:24:33.000Z,4
2023-03-05T06:26:03.000Z,4
2023-03-05T06:27:34.000Z,4
2023-03-05T06:29:04.000Z,4
2023-03-05T06:30:35.000Z,4
2023-03-05T06:32:05.000Z,4
2023-03-05T06:33:36.000Z,4
2023-03-05T06:35:06.000Z,4
2023-03-05T06:36:23.000Z,4
2023-03-05T06:37:40.000Z,4.1
2023-03-05T06:39:11.000Z,4
2023-03-05T06:40:41.000Z,4
2023-03-05T06:42:12.000Z,4
2023-03-05T06:43:42.000Z,4
2023-03-05T06:45:13.000Z,4
2023-03-05T06:46:43.000Z,4
2023-03-05T06:48:14.000Z,4
2023-03-05T06:49:44.000Z,4
2023-03-05T06:51:15.000Z,4
2023-03-05T06:52:32.000Z,3.9
2023-03-05T06:53:49.000Z,3.9
2023-03-05T06:55:19.000Z,3.8
2023-03-05T06:56:50.000Z,3.8
2023-03-05T06:58:20.000Z,3.8
2023-03-05T06:59:51.000Z,3.7
2023-03-05T07:01:21.000Z,3.7
2023-03-05T07:02:52.000Z,3.7
2023-03-05T07:04:22.000Z,3.7
2023-03-05T07:05:53.000Z,3.8
2023-03-05T07:07:23.000Z,3.8
2023-03-05T07:08:40.000Z,3.7
2023-03-05T07:09:57.000Z,3.7
2023-03-05T07:11:27.000Z,3.7
2023-03-05T07:12:58.000Z,3.7
2023-03-05T07:14:28.000Z,3.6
2023-03-05T07:15:59.000Z,3.6
2023-03-05T07:17:30.000Z,3.6
2023-03-05T07:19:00.000Z,3.6
2023-03-05T07:20:31.000Z,3.6
2023-03-05T07:22:01.000Z,3.6
2023-03-05T07:23:32.000Z,3.6
2023-03-05T07:24:49.000Z,3.6
2023-03-05T07:26:06.000Z,3.6
2023-03-05T07:27:36.000Z,3.7
2023-03-05T07:29:07.000Z,3.7
2023-03-05T07:30:37.000Z,3.8
2023-03-05T07:32:08.000Z,3.9
2023-03-05T07:33:38.000Z,3.9
2023-03-05T07:35:09.000Z,3.9
2023-03-05T07:36:39.000Z,4
2023-03-05T07:38:10.000Z,4
2023-03-05T07:39:40.000Z,4
2023-03-05T07:40:57.000Z,4.1
2023-03-05T07:42:14.000Z,4.1
2023-03-05T07:43:45.000Z,4.3
2023-03-05T07:45:15.000Z,4.5
2023-03-05T07:46:46.000Z,4.6
2023-03-05T07:48:16.000Z,4.7
2023-03-05T07:49:47.000Z,4.9
2023-03-05T07:51:17.000Z,4.8
2023-03-05T07:52:48.000Z,4.7
2023-03-05T07:54:18.000Z,4.6
2023-03-05T07:55:49.000Z,4.6
2023-03-05T07:57:06.000Z,4.5
2023-03-05T07:58:23.000Z,4.4
2023-03-05T07:59:53.000Z,4.4
2023-03-05T08:01:24.000Z,4.4
2023-03-05T08:04:25.000Z,4.6
2023-03-05T08:05:55.000Z,4.6
2023-03-05T08:07:26.000Z,4.7
2023-03-05T08:08:56.000Z,4.9
2023-03-05T08:10:27.000Z,5.2
2023-03-05T08:11:57.000Z,5.4
2023-03-05T08:13:14.000Z,5.6
2023-03-05T08:14:31.000Z,5.6
2023-03-05T08:16:02.000Z,5.5
2023-03-05T08:17:32.000Z,5.5
2023-03-05T08:19:03.000Z,5.4
2023-03-05T08:20:33.000Z,5.3
2023-03-05T08:22:04.000Z,5
2023-03-05T08:23:34.000Z,4.9
2023-03-05T08:25:05.000Z,4.9
2023-03-05T08:26:35.000Z,4.9
2023-03-05T08:28:06.000Z,4.9
2023-03-05T08:29:23.000Z,4.9
2023-03-05T08:30:40.000Z,4.9
2023-03-05T08:32:10.000Z,4.9
2023-03-05T08:33:41.000Z,4.8
2023-03-05T08:35:11.000Z,4.8
2023-03-05T08:36:42.000Z,4.8
2023-03-05T08:38:12.000Z,4.7
2023-03-05T08:39:43.000Z,4.7
2023-03-05T08:41:13.000Z,4.8
2023-03-05T08:42:44.000Z,4.8
2023-03-05T08:44:14.000Z,4.8
2023-03-05T08:45:31.000Z,4.8
2023-03-05T08:46:48.000Z,5
2023-03-05T08:48:19.000Z,5.1
2023-03-05T08:49:49.000Z,5.2
2023-03-05T08:51:20.000Z,5.2
2023-03-05T08:52:50.000Z,5.4
2023-03-05T08:54:21.000Z,5.5
2023-03-05T08:55:51.000Z,5.6
2023-03-05T08:57:22.000Z,5.5
2023-03-05T08:58:52.000Z,5.3
2023-03-05T09:00:23.000Z,5.4
2023-03-05T09:01:40.000Z,5.5
2023-03-05T09:02:57.000Z,5.5
2023-03-05T09:04:27.000Z,5.5
2023-03-05T09:05:58.000Z,5.7
2023-03-05T09:07:28.000Z,5.8
2023-03-05T09:10:29.000Z,5.8
2023-03-05T09:12:00.000Z,5.8
2023-03-05T09:13:30.000Z,5.8
2023-03-05T09:15:01.000Z,5.9
2023-03-05T09:16:31.000Z,6
2023-03-05T09:17:48.000Z,6
2023-03-05T09:19:05.000Z,6
2023-03-05T09:22:06.000Z,6
2023-03-05T09:23:37.000Z,6.2
2023-03-05T09:25:07.000Z,6.4
2023-03-05T09:26:38.000Z,6.5
2023-03-05T09:28:08.000Z,6.6
2023-03-05T09:29:39.000Z,6.5
2023-03-05T09:31:09.000Z,6.4
2023-03-05T09:32:40.000Z,6.3
2023-03-05T09:33:57.000Z,6.3
2023-03-05T09:35:14.000Z,6.4
2023-03-05T09:36:44.000Z,6.5
2023-03-05T09:38:15.000Z,6.5
2023-03-05T09:39:45.000Z,6.4
2023-03-05T09:41:16.000Z,6.3
2023-03-05T09:42:46.000Z,6.3
2023-03-05T09:44:17.000Z,6.4
2023-03-05T09:45:47.000Z,6.4
2023-03-05T09:47:18.000Z,6.4
2023-03-05T09:48:48.000Z,6.4
2023-03-05T09:50:05.000Z,6.3
2023-03-05T09:51:22.000Z,6.3
2023-03-05T09:52:53.071Z,6.3
2023-03-05T09:54:23.000Z,6.3
2023-03-05T09:55:54.000Z,6.4
2023-03-05T09:57:24.000Z,6.5
2023-03-05T09:58:55.000Z,6.3
2023-03-05T10:00:25.000Z,6.5
2023-03-05T10:01:56.000Z,6.9
2023-03-05T10:03:26.000Z,7.4
2023-03-05T10:04:57.000Z,7.3
2023-03-05T10:06:14.000Z,7.7
2023-03-05T10:07:31.000Z,7.4
2023-03-05T10:09:01.000Z,7.3
2023-03-05T10:10:32.000Z,7.2
2023-03-05T10:12:02.000Z,7.1
2023-03-05T10:13:33.000Z,6.9
2023-03-05T10:15:03.000Z,6.7
2023-03-05T10:18:04.000Z,6.6
2023-03-05T10:19:35.000Z,6.6
2023-03-05T10:21:05.000Z,6.7
2023-03-05T10:22:22.000Z,6.7
2023-03-05T10:23:39.000Z,6.7
2023-03-05T10:25:10.000Z,6.8
2023-03-05T10:26:40.000Z,7.1
2023-03-05T10:28:11.000Z,7.4
2023-03-05T10:29:41.000Z,7.5
2023-03-05T10:31:12.000Z,7.5
2023-03-05T10:32:50.000Z,8.1
2023-03-05T10:34:21.000Z,8.8
2023-03-05T10:35:51.000Z,8.7
2023-03-05T10:37:22.000Z,8.6
2023-03-05T10:38:39.000Z,8.4
2023-03-05T10:39:56.000Z,8.4
2023-03-05T10:41:26.000Z,8.6
2023-03-05T10:44:27.000Z,8.5
2023-03-05T10:45:58.000Z,8.2
2023-03-05T10:47:28.000Z,8.2
2023-03-05T10:48:59.000Z,8.2
2023-03-05T10:50:29.000Z,8.1
2023-03-05T10:52:00.000Z,7.5
2023-03-05T10:53:30.000Z,6.9
2023-03-05T10:54:47.000Z,6.6
2023-03-05T10:56:04.000Z,6.4
2023-03-05T10:57:35.000Z,6.3
2023-03-05T10:59:05.000Z,6.4
2023-03-05T11:00:36.000Z,6.9
2023-03-05T11:02:06.000Z,7.4
2023-03-05T11:03:37.000Z,7.5
2023-03-05T11:05:08.000Z,7.7
2023-03-05T11:06:38.000Z,7.7
2023-03-05T11:08:09.000Z,8
2023-03-05T11:09:39.000Z,8.8
2023-03-05T11:10:56.000Z,8.8
2023-03-05T11:12:13.000Z,8.7
2023-03-05T11:13:44.000Z,8.9
2023-03-05T11:15:14.000Z,9
2023-03-05T11:16:45.000Z,9.4
2023-03-05T11:18:15.000Z,9.6
2023-03-05T11:19:46.000Z,9.4
2023-03-05T11:21:16.000Z,9.6
2023-03-05T11:22:47.000Z,9.4
2023-03-05T11:24:17.000Z,9.2
2023-03-05T11:25:48.000Z,9.3
2023-03-05T11:27:05.000Z,9.3
2023-03-05T11:28:22.000Z,9.5
2023-03-05T11:29:52.000Z,9.6
2023-03-05T11:31:23.000Z,9.7
2023-03-05T11:32:53.000Z,10
2023-03-05T11:34:24.000Z,10.6
2023-03-05T11:35:54.000Z,10.9
2023-03-05T11:37:25.000Z,10.9
2023-03-05T11:38:55.000Z,11
2023-03-05T11:40:26.000Z,11
2023-03-05T11:41:56.000Z,10.9
2023-03-05T11:43:13.000Z,10.1
2023-03-05T11:44:30.000Z,9.6
2023-03-05T11:46:01.000Z,9.3
2023-03-05T11:47:31.000Z,9.5
2023-03-05T11:49:02.000Z,9.4
2023-03-05T11:50:32.000Z,9.1
2023-03-05T11:52:03.000Z,9
2023-03-05T11:53:33.000Z,9.4
2023-03-05T11:55:04.000Z,10.1
2023-03-05T11:56:34.000Z,10.6
2023-03-05T11:58:05.000Z,10.4
2023-03-05T11:59:22.000Z,10.4
2023-03-05T12:00:39.000Z,10.1
2023-03-05T12:02:09.000Z,9.7
2023-03-05T12:03:40.000Z,9.2
2023-03-05T12:06:41.000Z,8.9
2023-03-05T12:08:11.000Z,8.8
2023-03-05T12:09:42.000Z,9.3
2023-03-05T12:11:12.000Z,9.5
2023-03-05T12:12:43.000Z,9.6
2023-03-05T12:14:13.000Z,9.9
2023-03-05T12:15:30.000Z,9.5
2023-03-05T12:16:47.000Z,9.4
2023-03-05T12:18:18.000Z,9.4
2023-03-05T12:19:48.000Z,9.2
2023-03-05T12:21:19.000Z,9.2
2023-03-05T12:22:49.000Z,9.2
2023-03-05T12:24:20.000Z,9.2
2023-03-05T12:25:50.000Z,9.1
2023-03-05T12:27:21.000Z,8.6
2023-03-05T12:28:51.000Z,8.6
2023-03-05T12:30:22.000Z,8.7
2023-03-05T12:31:39.000Z,8.9
2023-03-05T12:32:56.000Z,9
2023-03-05T12:34:26.000Z,9.2
2023-03-05T12:35:57.000Z,9.5
2023-03-05T12:37:27.000Z,9.4
2023-03-05T12:38:58.000Z,9.1
2023-03-05T12:40:28.000Z,8.9
2023-03-05T12:41:59.000Z,8.9
2023-03-05T12:43:29.000Z,8.9
2023-03-05T12:45:00.000Z,8.9
2023-03-05T12:46:30.000Z,8.8
2023-03-05T12:47:47.000Z,8.7
2023-03-05T12:49:04.000Z,8.7
2023-03-05T12:50:35.000Z,8.6
2023-03-05T12:52:05.000Z,8.5
2023-03-05T12:53:36.000Z,8.3
2023-03-05T12:55:06.000Z,8.4
2023-03-05T12:56:37.000Z,8.5
2023-03-05T12:58:07.000Z,8.6
2023-03-05T12:59:38.000Z,8.6
2023-03-05T13:01:08.000Z,8.6
2023-03-05T13:02:39.000Z,8.7
2023-03-05T13:03:56.000Z,8.8
2023-03-05T13:05:13.000Z,8.7
2023-03-05T13:06:43.000Z,8.6
2023-03-05T13:08:14.000Z,8.4
2023-03-05T13:09:44.000Z,8.1
2023-03-05T13:11:15.000Z,8
2023-03-05T13:12:45.000Z,7.8
2023-03-05T13:14:16.000Z,7.6
2023-03-05T13:15:46.000Z,7.5
2023-03-05T13:17:17.000Z,7.4
2023-03-05T13:18:47.000Z,7.5
2023-03-05T13:20:04.000Z,7.5
2023-03-05T13:21:21.000Z,7.6
2023-03-05T13:22:52.000Z,7.6
2023-03-05T13:24:22.000Z,7.6
2023-03-05T13:25:53.000Z,7.7
2023-03-05T13:27:23.000Z,7.7
2023-03-05T13:28:54.000Z,7.7
2023-03-05T13:30:24.000Z,7.8
2023-03-05T13:31:55.000Z,7.7
2023-03-05T13:33:25.000Z,7.8
2023-03-05T13:34:56.000Z,7.8
2023-03-05T13:36:13.000Z,8
2023-03-05T13:37:30.000Z,8.2
2023-03-05T13:39:00.000Z,8.4
2023-03-05T13:42:01.000Z,8.7
2023-03-05T13:43:32.000Z,8.8
2023-03-05T13:45:03.000Z,8.7
2023-03-05T13:46:33.000Z,8.9
2023-03-05T13:49:34.000Z,8.7
2023-03-05T13:51:05.000Z,8.5
2023-03-05T13:52:21.000Z,8.5
2023-03-05T13:53:38.000Z,8.6
2023-03-05T13:55:09.000Z,8.4
2023-03-05T13:56:39.000Z,8.3
2023-03-05T13:58:10.000Z,8.3
2023-03-05T13:59:40.000Z,8.4
2023-03-05T14:01:11.000Z,8.3
2023-03-05T14:02:41.000Z,8.4
2023-03-05T14:04:12.000Z,8.4
2023-03-05T14:05:42.000Z,8.3
2023-03-05T14:07:13.000Z,8.5
2023-03-05T14:08:30.000Z,8.5
2023-03-05T14:09:47.000Z,8.5
2023-03-05T14:11:17.000Z,8.4
2023-03-05T14:12:48.000Z,8.4
2023-03-05T14:14:18.000Z,8.4
2023-03-05T14:15:49.000Z,8.5
2023-03-05T14:17:19.000Z,8.6
2023-03-05T14:18:50.000Z,8.7
2023-03-05T14:20:20.000Z,8.7
2023-03-05T14:21:51.000Z,8.7
2023-03-05T14:23:21.000Z,8.6
2023-03-05T14:24:38.000Z,8.6
2023-03-05T14:25:55.000Z,8.5
2023-03-05T14:27:26.000Z,8.5
2023-03-05T14:28:56.000Z,8.5
2023-03-05T14:30:27.000Z,8.5
2023-03-05T14:31:57.000Z,8.5
2023-03-05T14:33:28.000Z,8.4
2023-03-05T14:34:58.000Z,8.5
2023-03-05T14:36:29.000Z,8.5
2023-03-05T14:37:59.000Z,8.5
2023-03-05T14:39:30.000Z,8.6
2023-03-05T14:40:47.000Z,8.5
2023-03-05T14:42:04.000Z,8.4
2023-03-05T14:43:34.000Z,8.3
2023-03-05T14:48:06.000Z,8.1
2023-03-05T14:49:36.000Z,8.1
2023-03-05T14:51:07.000Z,8
2023-03-05T14:52:37.000Z,8
2023-03-05T14:54:08.000Z,7.9
2023-03-05T14:55:38.000Z,7.8
2023-03-05T14:56:55.000Z,7.8
2023-03-05T14:58:12.000Z,7.8
2023-03-05T14:59:43.000Z,7.8
2023-03-05T15:01:13.000Z,7.8
2023-03-05T15:02:44.000Z,7.8
2023-03-05T15:04:14.000Z,7.8
2023-03-05T15:05:45.000Z,7.8
2023-03-05T15:08:46.000Z,7.7
2023-03-05T15:10:16.000Z,7.7
2023-03-05T15:11:47.000Z,7.7
2023-03-05T15:13:04.000Z,7.8
2023-03-05T15:14:21.000Z,7.8
2023-03-05T15:15:51.000Z,7.8
2023-03-05T15:17:22.000Z,7.8
2023-03-05T15:18:52.000Z,7.8
2023-03-05T15:20:23.000Z,7.8
2023-03-05T15:21:53.000Z,7.8
2023-03-05T15:23:24.000Z,7.8
2023-03-05T15:24:54.000Z,7.7
2023-03-05T15:26:25.000Z,7.7
2023-03-05T15:28:04.000Z,7.6
2023-03-05T15:29:21.000Z,7.5
2023-03-05T15:30:38.000Z,7.5
2023-03-05T15:32:08.000Z,7.5
2023-03-05T15:33:39.000Z,7.5
2023-03-05T15:35:09.000Z,7.5
2023-03-05T15:36:40.000Z,7.5
2023-03-05T15:38:10.000Z,7.4
2023-03-05T15:39:41.000Z,7.5
2023-03-05T15:41:11.000Z,7.5
2023-03-05T15:42:42.000Z,7.5
2023-03-05T15:44:12.000Z,7.5
2023-03-05T15:46:46.000Z,7.6
2023-03-05T15:48:17.000Z,7.6
2023-03-05T15:49:47.000Z,7.5
2023-03-05T15:51:18.000Z,7.5
2023-03-05T15:52:48.000Z,7.4
2023-03-05T15:54:19.000Z,7.3
2023-03-05T15:55:49.000Z,7.3
2023-03-05T15:57:20.000Z,7.3
2023-03-05T15:58:50.000Z,7.3
2023-03-05T16:00:21.000Z,7.2
2023-03-05T16:01:38.000Z,7.2
2023-03-05T16:02:55.000Z,7.2
2023-03-05T16:04:25.000Z,7.1
2023-03-05T16:05:56.000Z,7.1
2023-03-05T16:07:26.000Z,7.1
2023-03-05T16:08:57.000Z,7.1
2023-03-05T16:10:27.000Z,7
2023-03-05T16:11:58.000Z,7
2023-03-05T16:13:28.000Z,7
2023-03-05T16:14:59.000Z,7
2023-03-05T16:16:29.000Z,7
2023-03-05T16:17:46.000Z,7
2023-03-05T16:19:03.000Z,7
2023-03-05T16:20:33.000Z,7
2023-03-05T16:22:04.000Z,6.9
2023-03-05T16:23:34.000Z,6.9
2023-03-05T16:25:05.000Z,6.9
2023-03-05T16:26:35.000Z,6.9
2023-03-05T16:28:06.000Z,6.9
2023-03-05T16:29:36.000Z,6.8
2023-03-05T16:31:07.000Z,6.8
2023-03-05T16:32:37.000Z,6.8
2023-03-05T16:33:54.000Z,6.7
2023-03-05T16:35:11.000Z,6.7
2023-03-05T16:36:42.000Z,6.7
2023-03-05T16:38:12.000Z,6.7
2023-03-05T16:39:43.000Z,6.6
2023-03-05T16:41:13.000Z,6.6
2023-03-05T16:42:44.000Z,6.6
2023-03-05T16:44:14.000Z,6.6
2023-03-05T16:45:45.000Z,6.6
2023-03-05T16:47:15.000Z,6.5
2023-03-05T16:48:46.000Z,6.5
2023-03-05T16:50:03.000Z,6.5
2023-03-05T16:51:20.000Z,6.5
2023-03-05T16:52:50.000Z,6.5
2023-03-05T16:54:21.000Z,6.5
2023-03-05T16:55:51.000Z,6.4
2023-03-05T16:57:22.000Z,6.4
2023-03-05T16:58:52.000Z,6.4
2023-03-05T17:00:23.000Z,6.4
2023-03-05T17:01:53.000Z,6.4
2023-03-05T17:03:24.000Z,6.4
2023-03-05T17:04:54.000Z,6.4
2023-03-05T17:06:11.000Z,6.3
2023-03-05T17:07:28.000Z,6.3
2023-03-05T17:08:59.000Z,6.3
2023-03-05T17:10:29.000Z,6.2
2023-03-05T17:12:00.000Z,6.2
2023-03-05T17:13:30.000Z,6.2
2023-03-05T17:15:01.000Z,6.2
2023-03-05T17:16:31.000Z,6.2
2023-03-05T17:18:02.000Z,6.2
2023-03-05T17:19:32.000Z,6.2
2023-03-05T17:21:03.000Z,6.2
2023-03-05T17:22:20.000Z,6.2
2023-03-05T17:23:36.000Z,6.2
2023-03-05T17:25:07.000Z,6.1
2023-03-05T17:26:38.000Z,6.1
2023-03-05T17:28:08.000Z,6.1
2023-03-05T17:31:09.000Z,6.1
2023-03-05T17:32:40.000Z,6
2023-03-05T17:34:10.000Z,6
2023-03-05T17:35:41.000Z,6
2023-03-05T17:37:11.000Z,6
2023-03-05T17:38:28.000Z,6
2023-03-05T17:39:45.000Z,6
2023-03-05T17:41:16.000Z,6
2023-03-05T17:42:46.000Z,6
2023-03-05T17:44:17.000Z,6
2023-03-05T17:45:47.000Z,6
2023-03-05T17:47:18.000Z,5.9
2023-03-05T17:48:48.000Z,5.9
2023-03-05T17:50:19.000Z,5.9
2023-03-05T17:51:49.000Z,5.9
2023-03-05T17:53:20.000Z,5.9
2023-03-05T17:54:37.000Z,5.8
2023-03-05T17:55:54.000Z,5.8
2023-03-05T17:57:24.000Z,5.8
2023-03-05T17:58:55.000Z,5.8
2023-03-05T18:00:25.000Z,5.8
2023-03-05T18:01:56.000Z,5.8
2023-03-05T18:03:26.000Z,5.8
2023-03-05T18:04:57.000Z,5.8
2023-03-05T18:06:27.000Z,5.9
2023-03-05T18:07:58.000Z,5.8
2023-03-05T18:09:28.000Z,5.8
2023-03-05T18:10:45.000Z,5.8
2023-03-05T18:12:02.000Z,5.8
2023-03-05T18:13:33.000Z,5.8
2023-03-05T18:15:03.000Z,5.8
2023-03-05T18:16:34.000Z,5.8
2023-03-05T18:18:04.000Z,5.8
2023-03-05T18:19:35.000Z,5.8
2023-03-05T18:21:05.000Z,5.8
2023-03-05T18:22:36.000Z,5.7
2023-03-05T18:24:06.000Z,5.7
2023-03-05T18:25:37.000Z,5.7
2023-03-05T18:26:54.000Z,5.7
2023-03-05T18:28:11.000Z,5.7
2023-03-05T18:29:41.000Z,5.7
2023-03-05T18:31:12.000Z,5.7
2023-03-05T18:32:42.000Z,5.7
2023-03-05T18:34:13.000Z,5.7
2023-03-05T18:37:14.000Z,5.7
2023-03-05T18:38:44.000Z,5.7
2023-03-05T18:40:15.000Z,5.6
2023-03-05T18:43:02.000Z,5.6
2023-03-05T18:44:19.000Z,5.6
2023-03-05T18:45:50.000Z,5.6
2023-03-05T18:47:20.000Z,5.6
2023-03-05T18:48:51.000Z,5.6
2023-03-05T18:50:21.000Z,5.6
2023-03-05T18:51:52.000Z,5.6
2023-03-05T18:53:22.000Z,5.6
2023-03-05T18:54:53.000Z,5.6
2023-03-05T18:56:23.000Z,5.6
2023-03-05T18:57:54.000Z,5.6
2023-03-05T18:59:11.000Z,5.5
2023-03-05T19:00:28.000Z,5.5
2023-03-05T19:01:58.000Z,5.5
2023-03-05T19:03:29.000Z,5.5
2023-03-05T19:04:59.000Z,5.5
2023-03-05T19:06:30.000Z,5.5
2023-03-05T19:08:00.000Z,5.5
2023-03-05T19:09:31.000Z,5.5
2023-03-05T19:11:01.000Z,5.5
2023-03-05T19:12:32.000Z,5.4
2023-03-05T19:14:02.000Z,5.4
2023-03-05T19:15:19.000Z,5.4
2023-03-05T19:16:36.000Z,5.4
2023-03-05T19:18:06.000Z,5.4
2023-03-05T19:19:37.000Z,5.4
2023-03-05T19:21:07.000Z,5.4
2023-03-05T19:22:38.000Z,5.4
2023-03-05T19:24:08.000Z,5.4
2023-03-05T19:25:39.000Z,5.4
2023-03-05T19:27:09.000Z,5.4
2023-03-05T19:28:40.000Z,5.4
2023-03-05T19:30:11.000Z,5.4
2023-03-05T19:31:27.000Z,5.4
2023-03-05T19:32:44.000Z,5.4
2023-03-05T19:34:15.000Z,5.4
2023-03-05T19:35:45.000Z,5.4
2023-03-05T19:37:16.000Z,5.4
2023-03-05T19:38:47.000Z,5.4
2023-03-05T19:40:17.000Z,5.4
2023-03-05T19:41:48.000Z,5.4
2023-03-05T19:43:18.000Z,5.4
2023-03-05T19:44:49.000Z,5.4
2023-03-05T19:46:19.000Z,5.4
2023-03-05T19:47:36.000Z,5.4
2023-03-05T19:48:53.000Z,5.4
2023-03-05T19:50:24.000Z,5.3
2023-03-05T19:51:54.000Z,5.3
2023-03-05T19:53:25.000Z,5.3
2023-03-05T19:54:55.000Z,5.3
2023-03-05T19:56:26.000Z,5.3
2023-03-05T19:57:56.000Z,5.2
2023-03-05T19:59:27.000Z,5.3
2023-03-05T20:00:57.000Z,5.3
2023-03-05T20:02:28.000Z,5.3
2023-03-05T20:03:44.000Z,5.3
2023-03-05T20:05:01.000Z,5.3
2023-03-05T20:06:32.000Z,5.3
2023-03-05T20:09:33.000Z,5.3
2023-03-05T20:11:03.000Z,5.3
2023-03-05T20:12:34.000Z,5.2
2023-03-05T20:14:04.000Z,5.2
2023-03-05T20:15:35.000Z,5.1
2023-03-05T20:17:05.000Z,5.1
2023-03-05T20:18:36.000Z,5
2023-03-05T20:19:53.000Z,5
2023-03-05T20:21:09.000Z,5
2023-03-05T20:22:48.000Z,5
2023-03-05T20:24:18.000Z,5
2023-03-05T20:25:49.000Z,5.1
2023-03-05T20:27:20.000Z,5.1
2023-03-05T20:28:50.000Z,5.1
2023-03-05T20:30:21.000Z,5.1
2023-03-05T20:31:51.000Z,5.1
2023-03-05T20:33:22.000Z,5.1
2023-03-05T20:34:52.000Z,5.1
2023-03-05T20:36:09.000Z,5.1
2023-03-05T20:37:26.000Z,5.1
2023-03-05T20:38:57.000Z,5.1
2023-03-05T20:40:27.000Z,5.1
2023-03-05T20:41:58.000Z,5.1
2023-03-05T20:43:28.000Z,5.1
2023-03-05T20:44:59.000Z,5.1
2023-03-05T20:46:29.000Z,5.1
2023-03-05T20:48:00.000Z,5.1
2023-03-05T20:49:30.000Z,5.1
2023-03-05T20:51:01.000Z,5.1
2023-03-05T20:52:18.000Z,5.1